Time;durP1;ratioP1;P1;durP2;ratioP2;P2;SDS_P1;SDS_P2;PMS_P1;PMS_P2;Temp;Humidity;BMP_temperature;BMP_pressure;BME280_temperature;BME280_humidity;BME280_pressure;Samples;Min_cycle;Max_cycle;Signal;HPM_P1;HPM_P2
2022/01/05 00:02:23;;;;;;;3.20;2.03;;;;;;;-0.84;100.00;98428.13;5079359;28;20044;-76
2022/01/05 00:04:48;;;;;;;3.70;2.55;;;;;;;-0.83;100.00;98431.66;5098076;28;20048;-76
2022/01/05 00:07:14;;;;;;;6.65;2.97;;;;;;;-0.79;100.00;98432.72;5097698;28;20071;-78
2022/01/05 00:09:39;;;;;;;4.30;2.60;;;;;;;-0.80;99.90;98426.53;5097370;28;20040;-76
2022/01/05 00:12:06;;;;;;;5.50;2.92;;;;;;;-0.80;100.00;98423.84;5097279;28;20700;-76
2022/01/05 00:14:31;;;;;;;6.07;2.55;;;;;;;-0.80;100.00;98423.84;5062990;28;20051;-76
2022/01/05 00:16:57;;;;;;;5.22;2.65;;;;;;;-0.79;100.00;98417.38;5097342;28;20032;-75
2022/01/05 00:19:22;;;;;;;3.25;2.83;;;;;;;-0.78;100.00;98412.81;5097172;28;20093;-76
2022/01/05 00:21:48;;;;;;;4.05;3.00;;;;;;;-0.79;100.00;98414.69;5096558;28;20048;-76
2022/01/05 00:24:14;;;;;;;5.18;3.35;;;;;;;-0.77;99.62;98417.13;5095894;28;20100;-75
2022/01/05 00:26:39;;;;;;;5.53;2.60;;;;;;;-0.76;99.81;98416.06;5095965;28;20059;-75
2022/01/05 00:29:05;;;;;;;3.47;2.28;;;;;;;-0.76;99.47;98416.06;5079277;28;20058;-76
2022/01/05 00:31:30;;;;;;;3.78;2.35;;;;;;;-0.75;100.00;98406.91;5079058;28;20036;-76
2022/01/05 00:33:56;;;;;;;5.55;2.38;;;;;;;-0.75;99.70;98409.59;5096264;28;20391;-76
2022/01/05 00:36:21;;;;;;;3.67;2.65;;;;;;;-0.74;99.99;98403.94;5079175;28;20040;-76
2022/01/05 00:38:47;;;;;;;4.35;2.50;;;;;;;-0.71;100.00;98397.22;5079112;28;20059;-75
2022/01/05 00:41:13;;;;;;;3.70;2.35;;;;;;;-0.72;100.00;98395.59;5097244;28;20058;-76
2022/01/05 00:43:39;;;;;;;3.03;2.60;;;;;;;-0.73;99.93;98396.66;5093685;28;20044;-76
2022/01/05 00:46:05;;;;;;;9.98;2.80;;;;;;;-0.72;99.82;98395.59;5094142;28;20036;-76
2022/01/05 00:48:32;;;;;;;2.90;2.20;;;;;;;-0.71;99.88;98397.22;5075884;28;20139;-76
2022/01/05 00:51:00;;;;;;;4.60;2.33;;;;;;;-0.68;100.00;98399.41;5075844;28;20040;-75
2022/01/05 00:53:26;;;;;;;3.88;2.38;;;;;;;-0.68;100.00;98392.13;5075627;28;20513;-76
2022/01/05 00:55:52;;;;;;;3.88;2.35;;;;;;;-0.67;99.72;98392.94;5075562;28;20044;-76
2022/01/05 00:58:18;;;;;;;2.45;2.00;;;;;;;-0.66;99.84;98384.59;5075712;28;20452;-76
2022/01/05 01:00:43;;;;;;;3.35;2.33;;;;;;;-0.66;99.87;98383.78;5075658;28;20050;-76
2022/01/05 01:03:09;;;;;;;4.75;2.92;;;;;;;-0.63;99.83;98383.25;5093570;28;20047;-76
2022/01/05 01:05:35;;;;;;;3.63;2.45;;;;;;;-0.63;100.00;98388.66;5092342;28;20126;-76
2022/01/05 01:08:01;;;;;;;3.65;2.50;;;;;;;-0.62;99.88;98390.25;5093376;28;20383;-76
2022/01/05 01:10:27;;;;;;;3.67;2.50;;;;;;;-0.63;100.00;98377.88;5075459;28;20044;-77
2022/01/05 01:12:52;;;;;;;3.90;2.45;;;;;;;-0.64;100.00;98384.34;5075442;28;20071;-77
2022/01/05 01:15:18;;;;;;;2.72;2.08;;;;;;;-0.64;100.00;98381.66;5075286;28;20032;-77
2022/01/05 01:17:44;;;;;;;3.35;2.47;;;;;;;-0.62;100.00;98384.88;5075613;28;20039;-77
2022/01/05 01:20:10;;;;;;;4.00;2.20;;;;;;;-0.63;99.60;98381.38;5068440;28;20052;-77
2022/01/05 01:22:36;;;;;;;5.13;2.50;;;;;;;-0.64;99.78;98378.94;5085437;28;20087;-77
2022/01/05 01:25:03;;;;;;;4.95;2.70;;;;;;;-0.64;99.96;98381.66;5053003;28;20417;-77
2022/01/05 01:27:29;;;;;;;4.00;2.42;;;;;;;-0.62;100.00;98385.69;5068390;28;20047;-77
2022/01/05 01:29:55;;;;;;;4.85;2.88;;;;;;;-0.61;100.00;98381.09;5085122;28;20037;-77
2022/01/05 01:32:20;;;;;;;4.57;2.58;;;;;;;-0.62;99.91;98380.31;5068192;28;20526;-77
2022/01/05 01:34:46;;;;;;;7.47;2.88;;;;;;;-0.60;100.00;98377.34;5052938;28;20037;-77
2022/01/05 01:37:11;;;;;;;5.97;2.97;;;;;;;-0.59;100.00;98373.56;5068127;28;20087;-77
2022/01/05 01:39:37;;;;;;;4.75;2.95;;;;;;;-0.59;99.89;98370.06;5052861;28;20526;-77
2022/01/05 01:42:03;;;;;;;5.43;2.90;;;;;;;-0.59;100.00;98372.75;5052592;28;20495;-77
2022/01/05 01:44:28;;;;;;;5.28;3.30;;;;;;;-0.61;100.00;98363.06;5052774;28;20037;-77
2022/01/05 01:46:54;;;;;;;7.57;3.55;;;;;;;-0.60;99.99;98369.25;5084955;28;20407;-77
2022/01/05 01:49:20;;;;;;;4.13;2.75;;;;;;;-0.61;100.00;98373.03;5052351;28;20048;-77
2022/01/05 01:51:45;;;;;;;3.58;2.60;;;;;;;-0.61;100.00;98370.34;5052899;28;20041;-77
2022/01/05 01:54:11;;;;;;;4.32;2.88;;;;;;;-0.63;99.74;98365.22;5052403;28;20124;-77
2022/01/05 01:56:37;;;;;;;4.15;2.90;;;;;;;-0.62;100.00;98368.72;5052463;28;20032;-77
2022/01/05 01:59:03;;;;;;;6.38;2.97;;;;;;;-0.63;100.00;98365.22;5051084;28;20041;-77
2022/01/05 02:01:29;;;;;;;5.38;3.58;;;;;;;-0.63;100.00;98361.72;5051407;28;20099;-77
2022/01/05 02:03:55;;;;;;;8.75;3.33;;;;;;;-0.61;100.00;98362.25;5052262;28;20045;-77
2022/01/05 02:06:20;;;;;;;4.78;2.90;;;;;;;-0.62;100.00;98357.94;5051143;28;20087;-77
2022/01/05 02:08:46;;;;;;;6.00;3.22;;;;;;;-0.64;100.00;98355.53;5051041;28;20045;-77
2022/01/05 02:11:13;;;;;;;4.07;2.83;;;;;;;-0.63;100.00;98350.94;5084323;28;20040;-77
2022/01/05 02:13:39;;;;;;;4.80;2.97;;;;;;;-0.63;100.00;98357.13;5084511;28;20076;-77
2022/01/05 02:16:06;;;;;;;4.78;2.70;;;;;;;-0.62;100.00;98360.63;5067401;28;20491;-75
2022/01/05 02:20:58;;;;;;;4.93;2.95;;;;;;;-0.63;100.00;98348.25;5052139;28;20045;-75
2022/01/05 02:23:24;;;;;;;4.40;2.95;;;;;;;-0.64;100.00;98352.03;5051002;28;20041;-76
2022/01/05 02:25:49;;;;;;;3.22;2.80;;;;;;;-0.65;100.00;98353.91;5051900;28;20070;-75
2022/01/05 02:28:15;;;;;;;4.55;2.28;;;;;;;-0.62;100.00;98357.94;5067110;28;20411;-76
2022/01/05 02:30:42;;;;;;;5.32;3.25;;;;;;;-0.62;100.00;98361.44;5050572;28;20039;-76
2022/01/05 02:33:08;;;;;;;3.63;2.75;;;;;;;-0.60;100.00;98353.09;5051507;28;20037;-76
2022/01/05 02:35:33;;;;;;;7.78;2.83;;;;;;;-0.60;100.00;98347.72;5050573;28;20037;-75
2022/01/05 02:37:59;;;;;;;3.25;2.38;;;;;;;-0.58;100.00;98356.34;5051591;28;20258;-76
2022/01/05 02:40:24;;;;;;;4.35;2.60;;;;;;;-0.58;100.00;98358.22;5050431;28;20044;-75
2022/01/05 02:42:55;;;;;;;4.28;2.50;;;;;;;-0.57;100.00;98357.16;5051615;28;20069;-76
2022/01/05 02:45:21;;;;;;;6.70;3.17;;;;;;;-0.59;100.00;98349.34;5050247;28;20076;-75
2022/01/05 02:47:48;;;;;;;3.83;2.67;;;;;;;-0.57;100.00;98352.56;5066890;28;20167;-75
2022/01/05 02:50:14;;;;;;;4.70;2.78;;;;;;;-0.57;100.00;98349.88;5051608;28;20044;-75
2022/01/05 02:52:40;;;;;;;4.05;2.90;;;;;;;-0.57;100.00;98352.56;5033777;28;20064;-75
2022/01/05 02:55:07;;;;;;;4.30;2.72;;;;;;;-0.58;100.00;98348.25;5066720;28;20041;-76
2022/01/05 02:57:32;;;;;;;4.75;2.47;;;;;;;-0.58;100.00;98344.75;5051492;28;20080;-75
2022/01/05 02:59:58;;;;;;;7.72;3.13;;;;;;;-0.58;100.00;98340.19;5051351;28;20479;-75
2022/01/05 03:02:24;;;;;;;5.78;2.88;;;;;;;-0.61;100.00;98349.59;5049863;28;20047;-75
2022/01/05 03:04:49;;;;;;;5.05;2.75;;;;;;;-0.62;100.00;98344.47;5051248;28;20507;-76
2022/01/05 03:07:16;;;;;;;3.55;2.55;;;;;;;-0.60;100.00;98345.03;5016261;28;20041;-77
2022/01/05 03:09:42;;;;;;;5.28;2.80;;;;;;;-0.59;100.00;98351.22;5051130;28;20047;-75
2022/01/05 03:12:09;;;;;;;6.13;3.08;;;;;;;-0.58;100.00;98347.44;5049747;28;20504;-74
2022/01/05 03:14:35;;;;;;;4.90;2.95;;;;;;;-0.56;100.00;98346.09;5050017;28;20503;-76
2022/01/05 03:17:00;;;;;;;5.72;3.08;;;;;;;-0.55;100.00;98336.13;5051366;28;20048;-77
2022/01/05 03:19:26;;;;;;;8.07;3.03;;;;;;;-0.59;100.00;98346.63;5049659;28;20052;-76
2022/01/05 03:21:51;;;;;;;6.68;2.83;;;;;;;-0.59;100.00;98332.38;5051080;28;20044;-76
2022/01/05 03:24:17;;;;;;;5.55;3.70;;;;;;;-0.58;100.00;98333.97;5033214;28;20036;-76
2022/01/05 03:26:43;;;;;;;4.00;2.47;;;;;;;-0.59;100.00;98341.25;5049789;28;20071;-76
2022/01/05 03:29:08;;;;;;;5.63;3.17;;;;;;;-0.60;100.00;98334.25;5049500;28;20144;-76
2022/01/05 03:31:34;;;;;;;5.00;3.30;;;;;;;-0.59;100.00;98337.75;5050793;28;20037;-76
2022/01/05 03:33:59;;;;;;;5.63;3.17;;;;;;;-0.61;100.00;98338.00;5050903;28;20080;-75
2022/01/05 03:36:25;;;;;;;5.00;3.10;;;;;;;-0.62;100.00;98331.00;5049476;28;20508;-75
2022/01/05 03:38:51;;;;;;;4.32;2.60;;;;;;;-0.63;100.00;98330.19;5050711;28;20041;-75
2022/01/05 03:41:16;;;;;;;7.85;2.40;;;;;;;-0.63;100.00;98330.19;5050819;28;20033;-75
2022/01/05 03:43:42;;;;;;;5.32;2.80;;;;;;;-0.64;100.00;98327.78;5050655;28;20045;-75
2022/01/05 03:46:08;;;;;;;3.05;2.20;;;;;;;-0.62;100.00;98325.63;5050816;28;20131;-76
2022/01/05 03:48:33;;;;;;;6.57;3.05;;;;;;;-0.62;100.00;98331.00;5049540;28;20044;-75
2022/01/05 03:50:59;;;;;;;5.53;3.10;;;;;;;-0.63;100.00;98324.81;5050737;28;20049;-76
2022/01/05 03:53:24;;;;;;;4.90;3.03;;;;;;;-0.63;100.00;98315.94;5050595;28;20044;-76
2022/01/05 03:55:50;;;;;;;3.80;2.58;;;;;;;-0.64;100.00;98322.41;5049463;28;20033;-76
2022/01/05 03:58:16;;;;;;;3.30;2.28;;;;;;;-0.65;100.00;98315.38;5032713;28;20041;-76
2022/01/05 04:00:47;;;;;;;4.90;2.80;;;;;;;-0.65;100.00;98310.00;5050687;28;20041;-75
2022/01/05 04:03:13;;;;;;;4.05;2.80;;;;;;;-0.64;100.00;98322.41;5049470;28;20052;-76
2022/01/05 04:05:39;;;;;;;3.38;2.03;;;;;;;-0.67;100.00;98317.53;5050895;28;20044;-76
2022/01/05 04:08:05;;;;;;;5.05;2.78;;;;;;;-0.66;100.00;98313.78;5032767;28;20037;-76
2022/01/05 04:10:31;;;;;;;4.18;2.38;;;;;;;-0.68;100.00;98307.84;5050770;28;20411;-76
2022/01/05 04:12:56;;;;;;;4.88;3.03;;;;;;;-0.70;100.00;98308.09;5050525;28;20088;-76
2022/01/05 04:15:22;;;;;;;3.50;2.60;;;;;;;-0.67;100.00;98312.97;5049435;28;20063;-76
2022/01/05 04:17:48;;;;;;;3.35;2.50;;;;;;;-0.68;100.00;98307.84;5050527;28;20059;-76
2022/01/05 04:20:14;;;;;;;4.35;2.72;;;;;;;-0.67;100.00;98306.78;5051831;28;20571;-76
2022/01/05 04:22:40;;;;;;;4.78;2.88;;;;;;;-0.65;100.00;98305.44;5053475;28;20044;-76
2022/01/05 04:25:06;;;;;;;4.60;2.97;;;;;;;-0.66;100.00;98303.81;5053210;28;20491;-76
2022/01/05 04:27:32;;;;;;;3.88;2.55;;;;;;;-0.66;100.00;98303.00;5054139;28;20403;-76
2022/01/05 04:29:58;;;;;;;3.53;2.65;;;;;;;-0.66;100.00;98297.63;5036569;28;20045;-75
2022/01/05 04:32:24;;;;;;;3.95;2.50;;;;;;;-0.65;100.00;98288.47;5019612;28;20068;-76
2022/01/05 04:34:49;;;;;;;4.38;2.65;;;;;;;-0.65;100.00;98291.16;5054023;28;20095;-75
2022/01/05 04:37:15;;;;;;;3.78;2.22;;;;;;;-0.66;100.00;98293.03;5053843;28;20554;-75
2022/01/05 04:39:40;;;;;;;4.68;3.00;;;;;;;-0.66;100.00;98287.66;5054155;28;20040;-77
2022/01/05 04:42:06;;;;;;;3.65;2.17;;;;;;;-0.65;100.00;98296.53;5053845;28;20037;-75
2022/01/05 04:44:32;;;;;;;4.22;2.40;;;;;;;-0.67;100.00;98285.22;5052672;28;20037;-75
2022/01/05 04:46:58;;;;;;;3.35;2.30;;;;;;;-0.67;100.00;98285.22;5052380;28;20569;-77
2022/01/05 04:49:23;;;;;;;4.10;2.80;;;;;;;-0.67;100.00;98291.41;5053493;28;20094;-75
2022/01/05 04:51:49;;;;;;;4.10;2.22;;;;;;;-0.65;100.00;98285.75;5035749;28;20114;-77
2022/01/05 04:54:15;;;;;;;1.13;1.00;;;;;;;-0.67;100.00;98290.63;5053813;28;20045;-77
2022/01/05 04:56:40;;;;;;;4.47;2.65;;;;;;;-0.66;100.00;98278.75;5052735;28;20458;-77
2022/01/05 04:59:06;;;;;;;3.08;2.10;;;;;;;-0.63;100.00;98286.31;5053466;28;20047;-77
2022/01/05 05:01:31;;;;;;;5.47;2.42;;;;;;;-0.64;100.00;98284.69;5053388;28;20124;-78
2022/01/05 05:03:57;;;;;;;4.80;1.98;;;;;;;-0.64;100.00;98280.09;5035709;28;20132;-77
2022/01/05 05:06:23;;;;;;;5.03;2.53;;;;;;;-0.64;100.00;98276.59;5053278;28;20048;-77
2022/01/05 05:08:49;;;;;;;3.67;2.28;;;;;;;-0.64;100.00;98271.22;5053148;28;20396;-77
2022/01/05 05:11:15;;;;;;;3.30;2.03;;;;;;;-0.67;100.00;98271.75;5053006;28;20353;-77
2022/01/05 05:13:40;;;;;;;4.10;2.45;;;;;;;-0.66;100.00;98271.50;5018934;28;20047;-77
2022/01/05 05:16:06;;;;;;;4.75;2.42;;;;;;;-0.64;100.00;98268.53;5053022;28;20037;-77
2022/01/05 05:18:32;;;;;;;3.30;2.00;;;;;;;-0.63;100.00;98275.53;5034985;28;20071;-77
2022/01/05 05:20:57;;;;;;;5.40;2.95;;;;;;;-0.63;100.00;98270.16;5051518;28;20143;-75
2022/01/05 05:23:24;;;;;;;4.30;2.95;;;;;;;-0.63;100.00;98270.16;5051896;28;20053;-76
2022/01/05 05:25:50;;;;;;;4.20;2.92;;;;;;;-0.63;100.00;98270.97;5051608;28;20098;-76
2022/01/05 05:28:15;;;;;;;3.25;2.20;;;;;;;-0.63;100.00;98267.44;5051389;28;20049;-75
2022/01/05 05:30:41;;;;;;;3.72;2.30;;;;;;;-0.62;100.00;98266.38;5034779;28;20041;-77
2022/01/05 05:33:06;;;;;;;4.90;2.88;;;;;;;-0.58;100.00;98262.06;5052737;28;20040;-77
2022/01/05 05:35:32;;;;;;;3.88;2.80;;;;;;;-0.56;100.00;98268.00;5052967;28;20043;-77
2022/01/05 05:37:58;;;;;;;7.15;3.33;;;;;;;-0.53;100.00;98269.34;5051691;28;20033;-77
2022/01/05 05:40:24;;;;;;;4.97;2.58;;;;;;;-0.55;100.00;98272.31;5051722;28;20059;-77
2022/01/05 05:42:50;;;;;;;5.50;3.67;;;;;;;-0.54;100.00;98268.53;5051562;28;20037;-75
2022/01/05 05:45:15;;;;;;;5.13;3.10;;;;;;;-0.53;100.00;98267.44;5051308;28;20095;-76
2022/01/05 05:47:41;;;;;;;5.53;2.58;;;;;;;-0.53;100.00;98272.03;5051375;28;20503;-77
2022/01/05 05:50:08;;;;;;;7.32;3.33;;;;;;;-0.53;100.00;98269.34;5051174;28;20037;-77
2022/01/05 05:52:34;;;;;;;5.90;3.55;;;;;;;-0.52;100.00;98269.09;5051465;28;20037;-77
2022/01/05 05:54:59;;;;;;;5.97;2.92;;;;;;;-0.54;100.00;98267.72;5034761;28;20052;-77
2022/01/05 05:57:25;;;;;;;5.35;3.28;;;;;;;-0.54;100.00;98268.53;5034658;28;20041;-77
2022/01/05 05:59:51;;;;;;;6.10;3.05;;;;;;;-0.55;100.00;98266.09;5052736;28;20041;-77
2022/01/05 06:02:16;;;;;;;5.40;2.88;;;;;;;-0.54;100.00;98252.38;5034437;28;20533;-77
2022/01/05 06:04:42;;;;;;;5.07;2.72;;;;;;;-0.52;100.00;98260.19;5052356;28;20150;-77
2022/01/05 06:07:07;;;;;;;3.67;2.10;;;;;;;-0.54;100.00;98257.75;5052349;28;20044;-77
2022/01/05 06:09:33;;;;;;;3.65;2.40;;;;;;;-0.54;100.00;98262.34;5052130;28;20131;-77
2022/01/05 06:11:58;;;;;;;3.90;2.50;;;;;;;-0.58;100.00;98262.06;5051477;28;20099;-75
2022/01/05 06:14:24;;;;;;;3.42;2.40;;;;;;;-0.57;100.00;98258.28;5050763;28;20037;-75
2022/01/05 06:16:50;;;;;;;4.82;2.38;;;;;;;-0.55;100.00;98258.03;5052451;28;20102;-76
2022/01/05 06:19:15;;;;;;;3.20;2.63;;;;;;;-0.58;100.00;98259.38;5050753;28;20226;-76
2022/01/05 06:21:41;;;;;;;2.92;2.25;;;;;;;-0.56;100.00;98257.22;5052056;28;20124;-76
2022/01/05 06:24:06;;;;;;;3.08;1.83;;;;;;;-0.59;100.00;98265.84;5050766;28;20052;-76
2022/01/05 06:26:32;;;;;;;3.35;1.35;;;;;;;-0.64;100.00;98255.06;5051744;28;20095;-75
2022/01/05 06:28:58;;;;;;;4.22;2.22;;;;;;;-0.63;100.00;98264.75;5050859;28;20044;-75
2022/01/05 06:31:24;;;;;;;3.05;2.15;;;;;;;-0.63;100.00;98252.09;5050307;28;20473;-76
2022/01/05 06:33:49;;;;;;;3.65;2.08;;;;;;;-0.60;100.00;98256.16;5050557;28;20136;-75
2022/01/05 06:36:15;;;;;;;3.03;2.00;;;;;;;-0.60;100.00;98253.44;5050296;28;20040;-77
2022/01/05 06:38:40;;;;;;;3.22;2.30;;;;;;;-0.61;100.00;98251.84;5051665;28;20060;-76
2022/01/05 06:41:06;;;;;;;3.58;2.22;;;;;;;-0.61;100.00;98249.94;5051271;28;20048;-76
2022/01/05 06:43:31;;;;;;;4.75;2.70;;;;;;;-0.59;100.00;98249.69;5066523;28;20128;-77
2022/01/05 06:45:58;;;;;;;3.92;2.33;;;;;;;-0.59;100.00;98246.97;5050400;28;20044;-77
2022/01/05 06:48:23;;;;;;;3.72;2.60;;;;;;;-0.61;100.00;98247.25;5051312;28;20090;-77
2022/01/05 06:50:49;;;;;;;5.13;2.45;;;;;;;-0.58;100.00;98239.72;5051392;28;20550;-75
2022/01/05 06:53:15;;;;;;;3.67;2.28;;;;;;;-0.58;100.00;98245.09;5050515;28;20037;-77
2022/01/05 06:55:40;;;;;;;3.67;2.25;;;;;;;-0.59;100.00;98244.28;5051552;28;20037;-76
2022/01/05 06:58:06;;;;;;;2.20;1.98;;;;;;;-0.59;100.00;98243.47;5050223;28;20491;-77
2022/01/05 07:00:32;;;;;;;4.07;3.08;;;;;;;-0.58;100.00;98239.72;5051281;28;20175;-75
2022/01/05 07:02:58;;;;;;;2.58;2.20;;;;;;;-0.60;100.00;98231.91;5051290;28;20045;-76
2022/01/05 07:05:24;;;;;;;3.95;2.70;;;;;;;-0.60;100.00;98237.28;5033279;28;20040;-77
2022/01/05 07:07:49;;;;;;;3.78;2.25;;;;;;;-0.60;100.00;98237.28;5049878;28;20591;-77
2022/01/05 07:10:15;;;;;;;3.00;1.83;;;;;;;-0.61;100.00;98235.69;5050998;28;20037;-77
2022/01/05 07:12:41;;;;;;;3.60;2.35;;;;;;;-0.59;100.00;98238.91;5049811;28;20033;-76
2022/01/05 07:15:07;;;;;;;3.50;2.30;;;;;;;-0.57;100.00;98242.13;5066462;28;20040;-76
2022/01/05 07:17:33;;;;;;;2.83;1.92;;;;;;;-0.56;100.00;98241.06;5066502;28;20052;-77
2022/01/05 07:19:59;;;;;;;3.13;2.10;;;;;;;-0.56;100.00;98237.56;5074580;28;20060;-77
2022/01/05 07:22:25;;;;;;;4.50;2.80;;;;;;;-0.54;100.00;98246.97;5091284;28;20044;-77
2022/01/05 07:24:50;;;;;;;4.70;2.78;;;;;;;-0.50;100.00;98248.09;5091287;28;20530;-77
2022/01/05 07:27:16;;;;;;;1.75;1.52;;;;;;;-0.49;100.00;98238.94;5089925;28;20457;-77
2022/01/05 07:29:42;;;;;;;5.07;2.80;;;;;;;-0.46;100.00;98245.66;5089607;28;20071;-77
2022/01/05 07:32:08;;;;;;;2.75;2.08;;;;;;;-0.44;100.00;98238.94;5072937;28;20529;-77
2022/01/05 07:34:33;;;;;;;6.57;2.70;;;;;;;-0.41;100.00;98235.69;5073160;28;20048;-77
2022/01/05 07:36:59;;;;;;;4.47;2.80;;;;;;;-0.41;100.00;98243.78;5091012;28;20065;-77
2022/01/05 07:39:25;;;;;;;6.07;3.25;;;;;;;-0.41;100.00;98235.69;5072857;28;20096;-77
2022/01/05 07:41:50;;;;;;;8.43;4.10;;;;;;;-0.38;100.00;98237.03;5091000;28;20040;-76
2022/01/05 07:44:17;;;;;;;6.65;3.53;;;;;;;-0.36;100.00;98232.97;5089657;28;20418;-77
2022/01/05 07:46:42;;;;;;;7.85;3.88;;;;;;;-0.31;100.00;98224.94;5089470;28;20040;-77
2022/01/05 07:49:08;;;;;;;6.65;3.78;;;;;;;-0.30;100.00;98231.13;5090869;28;20512;-77
2022/01/05 07:51:34;;;;;;;4.65;3.45;;;;;;;-0.28;100.00;98220.06;5089476;28;20130;-77
2022/01/05 07:54:01;;;;;;;5.95;3.47;;;;;;;-0.27;100.00;98219.78;5092169;28;20136;-77
2022/01/05 07:56:27;;;;;;;8.50;3.75;;;;;;;-0.27;100.00;98217.09;5076865;28;20071;-77
2022/01/05 07:58:52;;;;;;;7.28;3.90;;;;;;;-0.26;100.00;98220.59;5094897;28;20119;-77
2022/01/05 08:01:19;;;;;;;10.75;3.53;;;;;;;-0.25;100.00;98222.22;5094883;28;20466;-77
2022/01/05 08:03:48;;;;;;;7.70;3.88;;;;;;;-0.24;100.00;98223.84;5094829;28;20036;-77
2022/01/05 08:06:14;;;;;;;10.10;3.63;;;;;;;-0.23;100.00;98223.56;5093543;28;20036;-77
2022/01/05 08:08:40;;;;;;;8.40;3.92;;;;;;;-0.21;100.00;98213.31;5094488;28;20077;-75
2022/01/05 08:11:06;;;;;;;6.32;3.08;;;;;;;-0.20;100.00;98214.13;5094531;28;20035;-75
2022/01/05 08:13:32;;;;;;;8.05;3.85;;;;;;;-0.17;100.00;98211.72;5094403;28;20040;-77
2022/01/05 08:15:57;;;;;;;7.30;3.78;;;;;;;-0.16;100.00;98215.22;5094704;28;20168;-77
2022/01/05 08:18:23;;;;;;;6.47;3.67;;;;;;;-0.16;100.00;98220.63;5094417;28;20530;-77
2022/01/05 08:20:49;;;;;;;5.72;3.83;;;;;;;-0.14;100.00;98213.06;5093249;28;20572;-77
2022/01/05 08:23:20;;;;;;;6.57;3.90;;;;;;;-0.16;100.00;98201.75;5093269;28;20040;-77
2022/01/05 08:25:45;;;;;;;8.13;3.92;;;;;;;-0.15;100.00;98204.16;5076108;28;20127;-75
2022/01/05 08:28:12;;;;;;;8.32;3.90;;;;;;;-0.12;100.00;98209.00;5094229;28;20123;-77
2022/01/05 08:30:39;;;;;;;6.68;4.15;;;;;;;-0.12;100.00;98202.81;5076297;28;20146;-75
2022/01/05 08:33:05;;;;;;;7.70;4.38;;;;;;;-0.14;100.00;98207.69;5076465;28;20036;-77
2022/01/05 08:35:32;;;;;;;8.73;4.68;;;;;;;-0.13;100.00;98199.31;5093768;28;20028;-76
2022/01/05 08:37:57;;;;;;;9.48;4.30;;;;;;;-0.13;100.00;98198.50;5059284;28;20050;-77
2022/01/05 08:40:25;;;;;;;10.32;4.70;;;;;;;-0.16;100.00;98197.16;5092513;28;20057;-77
2022/01/05 08:42:51;;;;;;;4.55;2.70;;;;;;;-0.19;100.00;98196.88;5076134;28;20127;-77
2022/01/05 08:45:18;;;;;;;7.47;3.88;;;;;;;-0.21;100.00;98196.34;5075584;28;20039;-77
2022/01/05 08:47:47;;;;;;;6.63;4.13;;;;;;;-0.23;100.00;98195.81;5075610;28;20035;-77
2022/01/05 08:50:14;;;;;;;7.97;3.75;;;;;;;-0.22;100.00;98192.03;5093699;28;20090;-77
2022/01/05 08:52:40;;;;;;;8.57;3.00;;;;;;;-0.22;100.00;98192.03;5093706;28;20051;-77
2022/01/05 08:55:06;;;;;;;4.68;3.10;;;;;;;-0.20;100.00;98189.88;5093990;28;20067;-77
2022/01/05 08:57:32;;;;;;;7.43;3.90;;;;;;;-0.21;100.00;98190.94;5092395;28;20036;-76
2022/01/05 08:59:58;;;;;;;7.97;3.85;;;;;;;-0.23;100.00;98188.53;5093689;28;20046;-77
2022/01/05 09:02:23;;;;;;;6.10;3.25;;;;;;;-0.21;100.00;98191.75;5075316;28;20048;-76
2022/01/05 09:04:52;;;;;;;7.47;4.00;;;;;;;-0.22;100.00;98183.94;5093005;28;20493;-76
2022/01/05 09:07:20;;;;;;;8.90;4.75;;;;;;;-0.23;100.00;98188.53;5075772;28;20050;-76
2022/01/05 09:09:46;;;;;;;8.32;3.95;;;;;;;-0.24;100.00;98188.81;5093562;28;20052;-77
2022/01/05 09:12:12;;;;;;;8.43;3.90;;;;;;;-0.23;100.00;98188.53;5093350;28;20040;-77
2022/01/05 09:14:39;;;;;;;9.63;4.20;;;;;;;-0.21;100.00;98190.94;5093418;28;20081;-77
2022/01/05 09:17:05;;;;;;;11.20;4.95;;;;;;;-0.20;100.00;98176.41;5093151;28;20036;-77
2022/01/05 09:19:30;;;;;;;11.43;4.78;;;;;;;-0.20;100.00;98182.59;5091808;28;20052;-77
2022/01/05 09:21:56;;;;;;;15.23;5.63;;;;;;;-0.17;100.00;98175.88;5075268;28;20039;-77
2022/01/05 09:24:22;;;;;;;13.00;6.18;;;;;;;-0.13;100.00;98182.34;5092801;28;20066;-77
2022/01/05 09:26:47;;;;;;;9.85;4.65;;;;;;;-0.09;100.00;98178.81;5092850;28;20047;-77
2022/01/05 09:29:13;;;;;;;12.32;5.45;;;;;;;-0.08;100.00;98175.03;5074857;28;20035;-77
2022/01/05 09:31:38;;;;;;;7.90;3.45;;;;;;;-0.11;100.00;98182.88;5092913;28;20506;-77
2022/01/05 09:34:05;;;;;;;10.45;4.55;;;;;;;-0.09;100.00;98178.81;5091810;28;20059;-77
2022/01/05 09:36:35;;;;;;;7.95;3.83;;;;;;;-0.10;100.00;98179.91;5075051;28;20044;-77
2022/01/05 09:41:57;;;;;;;14.38;4.63;;;;;;;-0.06;100.00;98183.66;5092888;28;20077;-78
2022/01/05 09:44:33;;;;;;;11.63;4.55;;;;;;;-0.07;100.00;98182.03;5059904;28;20489;-76
2022/01/05 09:47:22;;;;;;;9.40;4.90;;;;;;;-0.03;100.00;98176.91;5074688;28;20032;-77
2022/01/05 09:50:05;;;;;;;9.85;4.85;;;;;;;-0.01;100.00;98180.94;5091337;28;20481;-75
2022/01/05 09:52:32;;;;;;;13.27;5.63;;;;;;;0.01;100.00;98167.22;5074531;28;20040;-78
2022/01/05 09:54:58;;;;;;;17.35;5.32;;;;;;;0.01;100.00;98175.31;5074712;28;20040;-77
2022/01/05 09:57:23;;;;;;;14.93;5.40;;;;;;;-0.01;100.00;98174.75;5091383;28;20032;-78
2022/01/05 09:59:51;;;;;;;8.68;3.30;;;;;;;0.07;100.00;98173.41;5057638;28;20036;-75
2022/01/05 10:02:17;;;;;;;1.75;0.98;;;;;;;0.06;100.00;98163.69;5092545;28;20036;-75
2022/01/05 10:04:44;;;;;;;4.82;2.35;;;;;;;0.03;100.00;98167.75;5074189;28;20387;-77
2022/01/05 10:07:10;;;;;;;12.57;5.00;;;;;;;0.03;100.00;98165.06;5074301;28;20126;-78
2022/01/05 10:09:37;;;;;;;10.88;5.65;;;;;;;0.06;100.00;98164.50;5092243;28;20151;-76
2022/01/05 10:12:03;;;;;;;11.07;5.22;;;;;;;0.07;100.00;98160.72;5074234;28;20067;-76
2022/01/05 10:14:29;;;;;;;10.57;5.13;;;;;;;0.06;100.00;98156.41;5091256;28;20052;-76
2022/01/05 10:17:03;;;;;;;8.65;3.95;;;;;;;0.11;100.00;98153.69;5074044;28;20047;-76
2022/01/05 10:19:28;;;;;;;12.65;4.75;;;;;;;0.15;100.00;98156.66;5091849;28;20455;-76
2022/01/05 10:21:55;;;;;;;14.65;5.97;;;;;;;0.14;100.00;98158.53;5057256;28;20089;-76
2022/01/05 10:24:48;;;;;;;7.47;3.80;;;;;;;0.15;100.00;98157.44;5091886;28;20032;-76
2022/01/05 10:27:21;;;;;;;12.93;5.80;;;;;;;0.17;100.00;98149.09;5073777;28;20046;-77
2022/01/05 10:30:06;;;;;;;12.60;5.75;;;;;;;0.16;100.00;98147.47;5090407;28;20134;-77
2022/01/05 10:32:33;;;;;;;13.30;5.72;;;;;;;0.18;100.00;98150.72;5091907;28;20067;-76
2022/01/05 10:35:17;;;;;;;9.77;5.20;;;;;;;0.19;100.00;98150.44;5092222;28;20046;-75
2022/01/05 10:37:46;;;;;;;10.15;4.75;;;;;;;0.17;100.00;98155.28;5073549;28;20048;-77
2022/01/05 10:40:14;;;;;;;15.52;6.43;;;;;;;0.18;100.00;98140.75;5090473;28;20040;-78
2022/01/05 10:42:41;;;;;;;7.10;2.90;;;;;;;0.17;100.00;98144.50;5091591;28;20055;-78
2022/01/05 10:45:09;;;;;;;11.25;5.85;;;;;;;0.20;100.00;98141.28;5091747;28;20043;-78
2022/01/05 10:47:37;;;;;;;17.35;6.57;;;;;;;0.20;100.00;98132.38;5073502;28;20074;-78
2022/01/05 10:50:05;;;;;;;10.70;5.88;;;;;;;0.18;100.00;98135.34;5091810;28;20562;-78
2022/01/05 10:52:33;;;;;;;6.35;2.90;;;;;;;0.19;100.00;98142.38;5073246;28;20422;-78
2022/01/05 10:55:16;;;;;;;9.90;5.03;;;;;;;0.17;100.00;98136.41;5091651;28;20036;-78
2022/01/05 10:58:03;;;;;;;10.65;5.18;;;;;;;0.19;100.00;98136.97;5073307;28;20397;-77
2022/01/05 11:00:33;;;;;;;9.20;4.97;;;;;;;0.15;100.00;98140.47;5090458;28;20445;-78
2022/01/05 11:02:58;;;;;;;;;;;;;;;0.13;100.00;98127.25;5091938;28;20073;-78
2022/01/05 11:05:24;;;;;;;5.00;2.92;;;;;;;0.15;100.00;98133.19;5040178;28;19997;-78
2022/01/05 11:07:50;;;;;;;16.40;5.03;;;;;;;0.17;100.00;98124.81;5073125;28;20036;-78
2022/01/05 11:10:18;;;;;;;4.53;3.25;;;;;;;0.18;100.00;98124.56;5090015;28;20046;-77
2022/01/05 11:12:52;;;;;;;8.20;4.03;;;;;;;0.18;100.00;98112.97;5091169;28;20441;-78
2022/01/05 11:15:21;;;;;;;9.95;4.78;;;;;;;0.16;100.00;98109.72;5091320;28;20028;-76
2022/01/05 11:18:11;;;;;;;10.88;4.75;;;;;;;0.17;100.00;98122.94;5091345;28;20032;-78
2022/01/05 11:20:38;;;;;;;10.63;4.95;;;;;;;0.17;100.00;98114.03;5089889;28;20043;-76
2022/01/05 11:23:05;;;;;;;14.77;5.72;;;;;;;0.16;100.00;98105.13;5091086;28;20483;-76
2022/01/05 11:25:31;;;;;;;6.05;3.72;;;;;;;0.17;100.00;98108.63;5090150;28;20487;-78
2022/01/05 11:27:57;;;;;;;3.78;2.35;;;;;;;0.19;100.00;98120.78;5089509;28;20496;-77
2022/01/05 11:30:23;;;;;;;9.70;4.70;;;;;;;0.18;100.00;98113.78;5073176;28;20043;-77